Estación Meteorológica Peña el Pijo (Robertgarden) [ 03/23/19 13:41:06 CET ]

Fecha Hora Presion(HPa) Temp (°C) Humedad % Rocio (°C) Viento ( m/s) Direccion Lluvia 1Hora(mm) Lluvia 24H(mm) LLuvia Total(mm)
2019-Mar-09 01:01:44 1017.300 2.9 77 -0.7         184.40
2019-Mar-09 02:01:45 1017.700 2.8 79 -0.5         184.40
2019-Mar-09 03:03:08 1017.400 2.6 80 -0.5         184.40
2019-Mar-09 04:01:39 1017.200 2.4 81 -0.5         184.40
2019-Mar-09 05:01:50 1017.500 2.3 82 -0.5         184.40
2019-Mar-09 06:01:43 1017.600 2.2 83 -0.4         184.40
2019-Mar-09 07:01:54 1018.100 2.1 83 -0.5         184.40
2019-Mar-09 08:02:02 1018.600 1.4 84 -1.1         184.40
2019-Mar-09 09:02:03 1019.600 4.4 86 2.2         184.40
2019-Mar-09 10:02:02 1019.900 10.5 71 5.5         184.40
2019-Mar-09 11:01:44 1019.900 16.1 44 3.8         184.40
2019-Mar-09 12:01:44 1019.800 17.3 37 2.4         184.40
2019-Mar-09 13:01:54 1019.200 18.1 33 1.5         184.40
2019-Mar-09 14:01:44 1018.600 19.3 32 2.1         184.40
2019-Mar-09 15:01:55 1018.100 20.2 29 1.5         184.40
2019-Mar-09 16:01:48 1018.000 19.3 30 1.3         184.40
2019-Mar-09 17:01:46 1017.700 18.9 30 1.0         184.40
2019-Mar-09 18:01:43 1018.100 17.9 30 0.1         184.40
2019-Mar-09 19:01:38 1018.400 14.1 36 -0.9         184.40
2019-Mar-09 20:01:55 1019.200 11.5 41 -1.3         184.40
2019-Mar-09 21:01:42 1019.700 8.5 48 -1.9         184.40
2019-Mar-09 22:01:30 1020.100 6.2 55 -2.2         184.40
2019-Mar-09 23:01:36 1020.600 5.0 61 -1.9         184.40

Temperatura Máxima:20°    Temperatura Mínima:
Presión Máxima:1020.600 Hpa    Presión Mínima:1017.200 Hpa


Volver